Weather reports worldwide

Advertisment
Cartagena, Spain (8434): temperature & dewpoint: 14.08.2019 06:00:00 - 20.08.2019 06:00:00 (CEST)Cartagena, Spain (8434): wind speed & gusts: 14.08.2019 06:00:00 - 20.08.2019 06:00:00 (CEST)Cartagena, Spain (8434): wind direction: 14.08.2019 06:00:00 - 20.08.2019 06:00:00 (CEST)Cartagena, Spain (8434): precipitation: 14.08.2019 06:00:00 - 20.08.2019 06:00:00 (CEST)
Date & Time tt [°C] td [°C] ff [km/h] ff [kn] fx [km/h] fx [kn] dd rr [mm]
20.08.2019 06:00:00 - - - - - - - -
20.08.2019 05:00:00 25,1 21,8 0 0 5 3 WNW 0,0
20.08.2019 04:00:00 25,4 21,7 3 1 9 5 WNW 0,0
20.08.2019 03:00:00 25,8 21,7 0 0 6 3 N 0,0
20.08.2019 02:00:00 26,2 21,8 3 2 8 4 NNE -
20.08.2019 01:00:00 26,5 21,9 3 2 12 6 NNE 0,0
20.08.2019 00:00:00 26,7 22,1 4 2 12 6 NE 0,0
19.08.2019 23:00:00 27,0 22,2 5 3 16 9 NNE 0,0
19.08.2019 22:00:00 27,9 20,7 3 2 11 6 NE 0,0
19.08.2019 21:00:00 28,0 19,5 5 3 16 8 E 0,0
19.08.2019 20:00:00 29,4 19,4 5 3 15 8 SSE -
19.08.2019 19:00:00 30,1 18,2 10 5 20 11 SE 0,0
19.08.2019 18:00:00 30,0 19,7 5 3 16 9 S 0,0
19.08.2019 17:00:00 30,1 21,7 6 4 18 10 S 0,0
19.08.2019 16:00:00 30,5 22,1 5 3 - - S -
19.08.2019 15:00:00 28,8 22,3 9 5 18 10 S 0,0
19.08.2019 14:00:00 28,6 21,9 8 4 18 10 S -
19.08.2019 13:00:00 28,8 22,3 6 3 16 8 S 0,0
19.08.2019 12:00:00 27,9 22,1 6 4 13 7 SE 0,0
19.08.2019 11:00:00 27,5 21,8 6 3 10 5 SSE 0,0
19.08.2019 10:00:00 26,7 22,1 3 2 11 6 S 0,0
19.08.2019 09:00:00 25,0 21,3 0 0 0 0 N 0,0
19.08.2019 08:00:00 23,3 19,5 0 0 4 2 N -
19.08.2019 07:00:00 23,2 20,0 1 0 7 4 WNW 0,0
19.08.2019 06:00:00 25,3 23,2 3 2 13 7 SSW 0,0
19.08.2019 05:00:00 25,3 23,2 4 2 14 8 SSW 0,0
19.08.2019 04:00:00 25,5 23,4 5 3 14 8 S 0,0
19.08.2019 03:00:00 25,8 23,5 6 3 13 7 S 0,0
19.08.2019 02:00:00 25,8 23,5 6 3 11 6 S -
19.08.2019 01:00:00 26,1 24,0 3 1 9 5 SSW 0,0
19.08.2019 00:00:00 26,3 24,1 3 1 12 7 S 0,0
18.08.2019 23:00:00 26,6 24,4 6 4 17 9 S 0,0
18.08.2019 22:00:00 26,9 24,0 8 4 - - S -
18.08.2019 21:00:00 27,4 22,8 7 4 21 11 S 0,0
18.08.2019 20:00:00 28,6 21,9 4 2 23 12 S -
18.08.2019 19:00:00 28,0 22,7 12 6 23 12 S 0,0
18.08.2019 18:00:00 28,4 22,9 10 5 21 11 S 0,0
18.08.2019 17:00:00 28,4 22,6 9 5 19 10 SSE 0,0
18.08.2019 16:00:00 28,4 22,6 10 5 21 12 SSE 0,0
18.08.2019 15:00:00 28,4 23,1 8 4 20 11 S 0,0
18.08.2019 14:00:00 27,8 22,3 10 5 - - S -
18.08.2019 13:00:00 28,5 22,0 10 5 18 10 S 0,0
18.08.2019 12:00:00 29,3 20,5 3 1 12 7 N 0,0
18.08.2019 11:00:00 27,4 22,6 3 2 11 6 NNE 0,0
18.08.2019 10:00:00 24,7 22,8 4 2 - - NNW -
18.08.2019 09:00:00 23,5 21,2 3 1 10 5 NW 0,0
18.08.2019 08:00:00 23,0 19,2 5 3 10 6 N -
18.08.2019 07:00:00 23,4 21,7 5 3 11 6 N 0,0
18.08.2019 06:00:00 24,3 22,4 4 2 9 5 N 0,0
18.08.2019 05:00:00 24,7 22,6 3 2 8 4 N 0,0
18.08.2019 04:00:00 25,2 23,1 2 1 8 4 NNE 0,0
18.08.2019 03:00:00 25,6 23,3 1 1 9 5 N 0,0
18.08.2019 02:00:00 26,0 23,7 2 1 - - N -
18.08.2019 01:00:00 26,2 23,3 0 0 11 6 N 0,0
18.08.2019 00:00:00 26,7 23,2 4 2 10 5 N 0,0
17.08.2019 23:00:00 26,8 22,2 3 1 6 4 WNW 0,0
17.08.2019 22:00:00 26,9 23,2 1 1 8 4 S 0,0
17.08.2019 21:00:00 26,9 22,3 3 2 12 7 S 0,0
17.08.2019 20:00:00 28,1 22,8 7 4 14 8 S -
17.08.2019 19:00:00 27,6 22,3 8 4 18 10 SSW 0,0
17.08.2019 18:00:00 27,9 22,8 8 4 17 9 S 0,0
17.08.2019 17:00:00 27,2 23,0 12 6 24 13 S 0,0
17.08.2019 16:00:00 27,4 22,3 13 7 23 12 S 0,0
17.08.2019 15:00:00 28,5 22,3 10 5 19 10 S 0,0
17.08.2019 14:00:00 28,4 21,9 8 5 19 11 S -
17.08.2019 13:00:00 28,6 21,9 5 3 17 9 S 0,0
17.08.2019 12:00:00 29,4 20,5 2 1 10 5 SE 0,0
17.08.2019 11:00:00 27,2 21,7 4 2 11 6 NE 0,0
17.08.2019 10:00:00 26,1 22,0 4 2 9 5 NNE 0,0
17.08.2019 09:00:00 23,5 20,6 3 1 - - N -
17.08.2019 08:00:00 22,8 20,1 4 2 8 4 NW -
17.08.2019 07:00:00 23,8 21,3 0 0 8 4 N 0,0
17.08.2019 06:00:00 24,2 21,7 2 1 9 5 WNW 0,0
17.08.2019 05:00:00 24,3 21,6 3 2 10 5 N 0,0
17.08.2019 04:00:00 24,3 21,6 3 2 10 5 NW 0,0
17.08.2019 03:00:00 24,7 21,8 2 1 9 5 NW 0,0
17.08.2019 02:00:00 25,4 21,7 2 1 8 4 NW -
17.08.2019 01:00:00 25,9 21,8 1 1 6 4 N 0,0
17.08.2019 00:00:00 26,3 21,5 3 2 7 4 NE 0,0
16.08.2019 23:00:00 26,8 20,6 2 1 9 5 ENE 0,0
16.08.2019 22:00:00 26,3 20,8 7 4 11 6 WSW 0,0
16.08.2019 21:00:00 28,2 19,1 4 2 11 6 SSW 0,0
16.08.2019 20:00:00 29,0 20,4 4 2 14 7 S -
16.08.2019 19:00:00 29,5 18,6 10 5 19 10 SE 0,0
16.08.2019 18:00:00 31,2 17,5 6 3 18 10 SE 0,0
16.08.2019 17:00:00 31,2 19,5 5 3 22 12 SSE 0,0
16.08.2019 16:00:00 31,6 21,1 6 4 20 11 NNE 0,0
16.08.2019 15:00:00 30,9 20,5 6 4 19 10 NE 0,0
16.08.2019 14:00:00 30,4 20,3 4 2 16 9 NE -
16.08.2019 13:00:00 29,8 20,4 5 3 18 10 ENE 0,0
16.08.2019 12:00:00 29,3 20,7 5 3 16 9 NNE 0,0
16.08.2019 11:00:00 28,1 21,4 6 3 16 9 NNE 0,0
16.08.2019 10:00:00 26,8 21,5 5 3 13 7 N 0,0
16.08.2019 09:00:00 24,1 20,6 3 2 9 5 NNW 0,0
16.08.2019 08:00:00 23,0 19,6 4 2 11 6 NNW -
16.08.2019 07:00:00 23,4 19,8 4 2 10 5 NNW 0,0
16.08.2019 06:00:00 23,5 19,4 2 1 9 5 NNW 0,0
16.08.2019 05:00:00 23,7 19,4 3 2 10 5 N 0,0
16.08.2019 04:00:00 23,9 19,0 4 2 12 6 NNW 0,0
16.08.2019 03:00:00 24,4 18,6 3 1 11 6 NW 0,0
16.08.2019 02:00:00 24,8 18,3 4 2 9 5 NW -
16.08.2019 01:00:00 26,0 18,2 3 2 7 4 N 0,0
16.08.2019 00:00:00 26,3 17,9 3 1 8 4 NNW 0,0
15.08.2019 23:00:00 26,9 15,9 3 1 5 3 W 0,0
15.08.2019 22:00:00 27,5 17,1 3 1 11 6 WSW 0,0
15.08.2019 21:00:00 27,4 20,0 5 3 14 8 WSW 0,0
15.08.2019 20:00:00 27,9 19,1 8 4 23 12 SSW -
15.08.2019 19:00:00 29,7 17,5 7 4 15 8 S 0,0
15.08.2019 18:00:00 30,9 17,2 5 3 19 11 SSE 0,0
15.08.2019 17:00:00 30,4 14,9 8 5 19 10 S 0,0
15.08.2019 16:00:00 30,4 16,0 7 4 - - S -
15.08.2019 15:00:00 29,8 15,9 10 5 21 12 S 0,0
15.08.2019 14:00:00 30,2 16,9 5 3 13 7 S -
15.08.2019 13:00:00 29,1 21,1 4 2 13 7 S 0,0
15.08.2019 12:00:00 28,8 20,3 2 1 9 5 ENE 0,0
15.08.2019 11:00:00 26,3 21,5 4 2 9 5 NNE 0,0
15.08.2019 10:00:00 24,5 21,8 4 2 9 5 N 0,0
15.08.2019 09:00:00 23,3 20,6 0 0 6 4 NW 0,0
15.08.2019 08:00:00 22,5 19,9 0 0 6 4 N -
15.08.2019 07:00:00 22,8 20,1 3 2 8 5 NNE 0,0
15.08.2019 06:00:00 23,0 20,1 4 2 8 4 N 0,0
15.08.2019 05:00:00 23,0 20,1 2 1 7 4 NW 0,0
15.08.2019 04:00:00 23,7 20,8 0 0 6 3 NW 0,0
15.08.2019 03:00:00 24,6 21,7 0 0 0 0 N 0,0
15.08.2019 02:00:00 25,1 22,2 0 0 0 0 N -
15.08.2019 01:00:00 25,3 22,2 0 0 5 3 N 0,0
15.08.2019 00:00:00 25,5 22,0 1 1 8 4 SSW 0,0
14.08.2019 23:00:00 25,4 21,7 4 2 15 8 S 0,0
14.08.2019 22:00:00 25,8 21,7 5 3 15 8 S 0,0
14.08.2019 21:00:00 26,1 21,3 7 4 18 10 S 0,0
14.08.2019 20:00:00 26,8 21,3 9 5 19 10 S -
14.08.2019 19:00:00 27,2 21,0 9 5 18 10 S 0,0
14.08.2019 18:00:00 27,6 21,2 7 4 21 12 S 0,0
14.08.2019 17:00:00 27,9 21,0 8 4 - - S -
14.08.2019 16:00:00 27,7 20,0 10 5 20 11 S 0,0
14.08.2019 15:00:00 28,0 20,5 6 3 19 11 S 0,0
14.08.2019 14:00:00 28,1 20,9 5 3 18 10 S -
14.08.2019 13:00:00 28,0 20,3 6 3 16 9 S 0,0
14.08.2019 12:00:00 27,5 20,3 4 2 10 5 S 0,0
14.08.2019 11:00:00 26,2 19,6 4 2 8 5 SW 0,0
14.08.2019 10:00:00 25,4 19,8 2 1 8 4 WNW 0,0
14.08.2019 09:00:00 23,7 19,6 3 2 10 5 N 0,0
14.08.2019 08:00:00 22,8 19,2 3 2 8 4 NNW -
14.08.2019 07:00:00 23,0 19,2 1 1 8 4 NNW 0,0
14.08.2019 06:00:00 23,1 19,1 1 1 11 6 NNW 0,0

tt = temperature
td = dewpoint
ff = wind speed
fx = gusts
dd = wind direction
rr = precipitation

Next stations